createdAt,value
2022-09-09T00:01:23.479Z,56.81
2022-09-09T00:03:54.404Z,56.48
2022-09-09T00:06:28.050Z,56.81
2022-09-09T00:09:13.402Z,56.82
2022-09-09T00:11:51.669Z,56.76
2022-09-09T00:14:24.203Z,56.54
2022-09-09T00:16:54.389Z,56.61
2022-09-09T00:19:24.244Z,57.17
2022-09-09T00:21:59.891Z,57.06
2022-09-09T00:24:33.738Z,57.15
2022-09-09T00:27:08.574Z,57.16
2022-09-09T00:29:46.534Z,57.10
2022-09-09T00:32:19.680Z,57.23
2022-09-09T00:34:49.185Z,56.79
2022-09-09T00:37:16.283Z,56.91
2022-09-09T00:39:43.769Z,56.94
2022-09-09T00:42:19.111Z,56.48
2022-09-09T00:45:06.125Z,56.31
2022-09-09T00:47:40.616Z,56.47
2022-09-09T00:50:13.093Z,56.64
2022-09-09T00:52:47.424Z,56.88
2022-09-09T00:55:20.757Z,56.88
2022-09-09T00:57:48.977Z,56.99
2022-09-09T01:00:20.909Z,57.03
2022-09-09T01:02:59.933Z,57.29
2022-09-09T01:05:36.098Z,57.00
2022-09-09T01:08:04.473Z,56.92
2022-09-09T01:10:51.135Z,56.76
2022-09-09T01:13:34.691Z,57.09
2022-09-09T01:16:08.733Z,56.75
2022-09-09T01:18:40.808Z,57.07
2022-09-09T01:21:17.891Z,56.76
2022-09-09T01:24:03.894Z,56.99
2022-09-09T01:26:40.584Z,57.07
2022-09-09T01:29:14.360Z,57.58
2022-09-09T01:31:44.199Z,57.48
2022-09-09T01:34:12.485Z,58.21
2022-09-09T01:36:44.227Z,58.23
2022-09-09T01:39:11.508Z,58.58
2022-09-09T01:41:38.402Z,58.47
2022-09-09T01:44:08.870Z,58.64
2022-09-09T01:46:37.411Z,58.58
2022-09-09T01:49:06.200Z,58.35
2022-09-09T01:51:32.753Z,58.09
2022-09-09T01:54:03.970Z,57.84
2022-09-09T01:56:49.620Z,57.79
2022-09-09T01:59:28.477Z,57.94
2022-09-09T02:02:12.607Z,58.16
2022-09-09T02:04:47.335Z,58.46
2022-09-09T02:07:29.221Z,58.81
2022-09-09T02:10:12.189Z,58.09
2022-09-09T02:12:44.781Z,58.61
2022-09-09T02:15:17.447Z,58.71
2022-09-09T02:17:51.407Z,58.79
2022-09-09T02:20:19.342Z,58.62
2022-09-09T02:22:51.265Z,58.75
2022-09-09T02:25:21.217Z,59.03
2022-09-09T02:27:51.325Z,59.27
2022-09-09T02:30:18.737Z,59.59
2022-09-09T02:32:53.598Z,59.29
2022-09-09T02:35:23.847Z,59.46
2022-09-09T02:37:52.316Z,59.08
2022-09-09T02:40:19.013Z,58.95
2022-09-09T02:42:50.702Z,58.96
2022-09-09T02:45:26.175Z,59.05
2022-09-09T02:48:02.092Z,59.10
2022-09-09T02:50:35.858Z,59.23
2022-09-09T02:53:04.298Z,59.63
2022-09-09T02:55:32.907Z,59.72
2022-09-09T02:58:00.333Z,60.39
2022-09-09T03:00:29.021Z,60.26
2022-09-09T03:02:59.833Z,60.18
2022-09-09T03:05:27.182Z,60.72
2022-09-09T03:07:53.620Z,60.90
2022-09-09T03:10:21.212Z,61.15
2022-09-09T03:12:47.661Z,61.19
2022-09-09T03:15:15.817Z,61.19
2022-09-09T03:17:42.334Z,61.06
2022-09-09T03:20:09.368Z,61.70
2022-09-09T03:22:37.161Z,62.06
2022-09-09T03:25:04.074Z,62.41
2022-09-09T03:27:30.794Z,62.98
2022-09-09T03:29:58.520Z,62.64
2022-09-09T03:32:27.088Z,62.31
2022-09-09T03:34:55.256Z,62.52
2022-09-09T03:37:21.786Z,62.75
2022-09-09T03:39:50.158Z,62.55
2022-09-09T03:42:20.925Z,62.61
2022-09-09T03:44:51.270Z,62.75
2022-09-09T03:47:22.611Z,62.87
2022-09-09T03:49:51.907Z,62.42
2022-09-09T03:52:23.408Z,62.49
2022-09-09T03:54:50.834Z,61.89
2022-09-09T03:57:17.982Z,61.94
2022-09-09T03:59:44.726Z,61.79
2022-09-09T04:02:11.325Z,61.41
2022-09-09T04:04:37.832Z,61.29
2022-09-09T04:07:07.012Z,61.61
2022-09-09T04:09:34.016Z,61.83
2022-09-09T04:12:01.062Z,62.44
2022-09-09T04:14:29.686Z,62.83
2022-09-09T04:16:59.220Z,63.05
2022-09-09T04:19:26.556Z,62.92
2022-09-09T04:21:53.317Z,62.97
2022-09-09T04:24:22.506Z,63.30
2022-09-09T04:26:50.229Z,62.56
2022-09-09T04:29:17.132Z,62.40
2022-09-09T04:31:43.631Z,62.64
2022-09-09T04:34:10.335Z,62.66
2022-09-09T04:36:37.212Z,62.46
2022-09-09T04:39:05.511Z,61.98
2022-09-09T04:41:32.385Z,62.17
2022-09-09T04:44:00.734Z,61.96
2022-09-09T04:46:27.762Z,61.91
2022-09-09T04:48:54.732Z,61.95
2022-09-09T04:51:23.153Z,61.89
2022-09-09T04:53:51.736Z,61.71
2022-09-09T04:56:18.909Z,61.64
2022-09-09T04:58:50.734Z,61.45
2022-09-09T05:01:19.599Z,61.04
2022-09-09T05:03:47.260Z,61.05
2022-09-09T05:06:18.314Z,61.56
2022-09-09T05:08:46.931Z,61.59
2022-09-09T05:11:17.357Z,61.79
2022-09-09T05:13:44.216Z,61.54
2022-09-09T05:16:12.194Z,61.44
2022-09-09T05:18:39.347Z,60.91
2022-09-09T05:21:07.628Z,61.08
2022-09-09T05:23:34.978Z,60.33
2022-09-09T05:26:01.615Z,60.22
2022-09-09T05:28:29.452Z,60.00
2022-09-09T05:30:58.376Z,60.74
2022-09-09T05:33:26.619Z,60.70
2022-09-09T05:36:00.174Z,60.85
2022-09-09T05:38:28.828Z,60.13
2022-09-09T05:40:57.515Z,59.98
2022-09-09T05:43:25.381Z,60.05
2022-09-09T05:46:02.484Z,60.18
2022-09-09T05:48:31.024Z,60.86
2022-09-09T05:50:57.522Z,60.80
2022-09-09T05:53:27.008Z,60.85
2022-09-09T05:56:00.979Z,60.85
2022-09-09T05:58:27.631Z,61.02
2022-09-09T06:00:55.195Z,61.48
2022-09-09T06:03:24.530Z,61.94
2022-09-09T06:05:58.117Z,61.91
2022-09-09T06:08:24.820Z,61.77
2022-09-09T06:10:51.219Z,61.02
2022-09-09T06:13:18.609Z,61.87
2022-09-09T06:15:53.055Z,62.17
2022-09-09T06:18:20.312Z,61.68
2022-09-09T06:21:00.222Z,61.78
2022-09-09T06:23:27.149Z,62.04
2022-09-09T06:26:01.958Z,61.22
2022-09-09T06:28:29.195Z,61.00
2022-09-09T06:31:06.327Z,60.85
2022-09-09T06:33:35.750Z,61.35
2022-09-09T06:36:04.764Z,60.92
2022-09-09T06:38:32.280Z,60.91
2022-09-09T06:40:59.964Z,60.52
2022-09-09T06:43:27.607Z,60.66
2022-09-09T06:45:59.656Z,60.40
2022-09-09T06:48:27.370Z,59.90
2022-09-09T06:51:07.981Z,59.29
2022-09-09T06:53:35.604Z,58.84
2022-09-09T06:56:14.856Z,58.29
2022-09-09T06:58:45.016Z,57.73
2022-09-09T07:01:17.321Z,57.12
2022-09-09T07:03:46.033Z,57.28
2022-09-09T07:06:15.769Z,57.81
2022-09-09T07:08:42.304Z,57.85
2022-09-09T07:11:12.388Z,56.84
2022-09-09T07:13:40.667Z,56.40
2022-09-09T07:16:15.055Z,55.59
2022-09-09T07:18:42.039Z,54.67
2022-09-09T07:21:09.995Z,53.55
2022-09-09T07:23:42.499Z,54.44
2022-09-09T07:26:14.398Z,54.20
2022-09-09T07:28:42.052Z,53.68
2022-09-09T07:31:14.520Z,54.15
2022-09-09T07:33:41.899Z,54.73
2022-09-09T07:36:19.486Z,54.08
2022-09-09T07:38:47.625Z,53.64
2022-09-09T07:41:16.064Z,53.08
2022-09-09T07:43:43.675Z,52.96
2022-09-09T07:46:11.013Z,51.96
2022-09-09T07:48:37.835Z,51.36
2022-09-09T07:51:12.716Z,51.18
2022-09-09T07:53:40.898Z,50.64
2022-09-09T07:56:10.187Z,49.98
2022-09-09T07:58:40.817Z,50.07
2022-09-09T08:01:12.425Z,50.27
2022-09-09T08:03:39.320Z,49.30
2022-09-09T08:06:07.909Z,50.38
2022-09-09T08:08:35.234Z,49.61
2022-09-09T08:11:09.891Z,50.21
2022-09-09T08:13:37.732Z,51.27
2022-09-09T08:16:08.503Z,52.02
2022-09-09T08:18:35.217Z,55.27
2022-09-09T08:21:09.648Z,55.79
2022-09-09T08:23:36.418Z,54.04
2022-09-09T08:26:08.191Z,54.59
2022-09-09T08:28:35.094Z,54.51
2022-09-09T08:31:07.918Z,53.93
2022-09-09T08:33:34.655Z,52.96
2022-09-09T08:36:01.411Z,50.90
2022-09-09T08:38:29.594Z,50.59
2022-09-09T08:41:01.986Z,49.73
2022-09-09T08:43:30.261Z,48.86
2022-09-09T08:46:02.213Z,47.63
2022-09-09T08:48:28.716Z,46.07
2022-09-09T08:51:02.811Z,45.37
2022-09-09T08:53:36.955Z,45.54
2022-09-09T08:56:09.399Z,45.47
2022-09-09T08:59:04.206Z,44.42
2022-09-09T09:01:38.190Z,42.74
2022-09-09T09:04:25.494Z,43.59
2022-09-09T09:07:13.251Z,43.96
2022-09-09T09:09:59.764Z,42.08
2022-09-09T09:12:30.095Z,39.16
2022-09-09T09:14:58.342Z,31.56
2022-09-09T09:17:26.457Z,25.50
2022-09-09T09:19:53.455Z,23.40
2022-09-09T09:22:23.348Z,19.93
2022-09-09T09:24:54.399Z,23.12
2022-09-09T09:27:23.172Z,28.10
2022-09-09T09:30:21.061Z,31.43
2022-09-09T09:32:45.190Z,34.70
2022-09-09T09:35:13.356Z,35.55
2022-09-09T09:40:29.891Z,39.51
2022-09-09T09:43:01.464Z,39.85
2022-09-09T09:45:30.034Z,37.97
2022-09-09T09:48:07.502Z,34.41
2022-09-09T09:50:40.990Z,35.10
2022-09-09T09:53:20.269Z,38.31
2022-09-09T09:56:00.833Z,40.94
2022-09-09T09:58:32.058Z,43.07
2022-09-09T10:01:00.650Z,44.93
2022-09-09T10:03:28.955Z,46.65
2022-09-09T10:05:59.983Z,47.63
2022-09-09T10:08:27.013Z,48.68
2022-09-09T10:11:05.742Z,47.97
2022-09-09T10:13:58.742Z,45.90
2022-09-09T10:16:44.122Z,44.03
2022-09-09T10:19:13.965Z,42.53
2022-09-09T10:21:43.865Z,40.82
2022-09-09T10:24:21.583Z,39.51
2022-09-09T10:26:55.991Z,33.10
2022-09-09T10:29:38.972Z,24.98
2022-09-09T10:32:08.373Z,21.96
2022-09-09T10:34:37.930Z,19.53
2022-09-09T10:37:12.625Z,17.90
2022-09-09T10:39:43.070Z,17.07
2022-09-09T10:42:17.718Z,16.09
2022-09-09T10:45:02.494Z,15.01
2022-09-09T10:47:29.428Z,15.45
2022-09-09T10:49:59.019Z,14.62
2022-09-09T10:52:52.608Z,13.59
2022-09-09T10:55:29.987Z,13.01
2022-09-09T10:57:58.660Z,15.58
2022-09-09T11:00:47.122Z,17.49
2022-09-09T11:03:19.840Z,14.90
2022-09-09T11:05:46.554Z,14.38
2022-09-09T11:08:21.134Z,13.69
2022-09-09T11:10:53.382Z,14.15
2022-09-09T11:13:27.127Z,13.21
2022-09-09T11:15:56.326Z,13.05
2022-09-09T11:18:24.284Z,13.19
2022-09-09T11:21:02.921Z,14.54
2022-09-09T11:23:41.986Z,17.19
2022-09-09T11:26:12.043Z,19.79
2022-09-09T11:28:48.343Z,23.09
2022-09-09T11:31:32.849Z,24.17
2022-09-09T11:34:04.942Z,25.65
2022-09-09T11:36:31.359Z,26.79
2022-09-09T11:39:04.077Z,28.01
2022-09-09T11:41:35.994Z,29.39
2022-09-09T11:44:10.964Z,30.50
2022-09-09T11:46:39.149Z,31.27
2022-09-09T11:49:07.042Z,31.12
2022-09-09T11:51:34.831Z,31.76
2022-09-09T11:54:24.395Z,32.43
2022-09-09T11:56:50.809Z,32.34
2022-09-09T11:59:21.721Z,33.01
2022-09-09T12:01:57.170Z,32.69
2022-09-09T12:04:26.539Z,32.97
2022-09-09T12:07:00.995Z,32.83
2022-09-09T12:09:33.256Z,33.39
2022-09-09T12:12:23.048Z,33.64
2022-09-09T12:14:57.086Z,33.88
2022-09-09T12:17:29.840Z,34.78
2022-09-09T12:20:12.365Z,40.07
2022-09-09T12:22:39.252Z,43.35
2022-09-09T12:25:24.801Z,44.22
2022-09-09T12:28:05.960Z,43.78
2022-09-09T12:30:52.715Z,43.66
2022-09-09T12:33:20.101Z,42.07
2022-09-09T12:35:51.521Z,40.59
2022-09-09T12:38:31.249Z,41.62
2022-09-09T12:40:58.323Z,44.42
2022-09-09T12:43:25.986Z,45.55
2022-09-09T12:45:58.676Z,45.32
2022-09-09T12:48:37.621Z,44.86
2022-09-09T12:51:06.878Z,43.77
2022-09-09T12:53:35.195Z,44.49
2022-09-09T12:56:03.685Z,45.20
2022-09-09T12:58:33.872Z,45.59
2022-09-09T13:01:01.188Z,48.35
2022-09-09T13:03:28.114Z,50.09
2022-09-09T13:05:59.592Z,55.15
2022-09-09T13:08:27.793Z,63.33
2022-09-09T13:11:02.821Z,66.52
2022-09-09T13:13:33.793Z,68.13
2022-09-09T13:16:01.711Z,68.06
2022-09-09T13:18:30.828Z,66.45
2022-09-09T13:21:00.641Z,66.37
2022-09-09T13:23:36.189Z,64.29
2022-09-09T13:26:08.656Z,60.25
2022-09-09T13:28:36.171Z,58.94
2022-09-09T13:31:04.325Z,58.23
2022-09-09T13:33:40.290Z,56.93
2022-09-09T13:36:14.169Z,55.84
2022-09-09T13:38:53.010Z,52.91
2022-09-09T13:41:24.643Z,51.48
2022-09-09T13:43:52.213Z,51.51
2022-09-09T13:46:33.981Z,50.90
2022-09-09T13:49:19.558Z,49.31
2022-09-09T13:51:47.843Z,47.07
2022-09-09T13:54:15.980Z,47.41
2022-09-09T13:56:42.783Z,47.08
2022-09-09T13:59:13.345Z,46.32
2022-09-09T14:01:39.792Z,45.40
2022-09-09T14:04:09.808Z,45.91
2022-09-09T14:06:40.191Z,46.45
2022-09-09T14:09:07.066Z,45.85
2022-09-09T14:11:33.517Z,46.40
2022-09-09T14:14:01.910Z,46.42
2022-09-09T14:16:30.287Z,47.71
2022-09-09T14:19:00.219Z,49.01
2022-09-09T14:21:27.113Z,47.92
2022-09-09T14:23:53.810Z,48.36
2022-09-09T14:26:21.739Z,48.77
2022-09-09T14:28:55.252Z,48.21
2022-09-09T14:31:23.124Z,48.26
2022-09-09T14:33:49.568Z,47.22
2022-09-09T14:36:16.184Z,46.75
2022-09-09T14:38:43.625Z,44.47
2022-09-09T14:41:11.502Z,45.96
2022-09-09T14:43:41.449Z,45.94
2022-09-09T14:46:15.329Z,45.76
2022-09-09T14:48:42.219Z,47.35
2022-09-09T14:51:09.582Z,47.42
2022-09-09T14:53:36.108Z,47.70
2022-09-09T14:56:09.778Z,47.86
2022-09-09T14:58:36.467Z,47.35
2022-09-09T15:01:05.121Z,47.35
2022-09-09T15:03:31.726Z,47.19
2022-09-09T15:05:59.296Z,48.29
2022-09-09T15:08:27.027Z,47.96
2022-09-09T15:11:02.523Z,50.10
2022-09-09T15:13:29.221Z,50.11
2022-09-09T15:15:55.809Z,50.61
2022-09-09T15:18:22.674Z,50.57
2022-09-09T15:20:49.177Z,49.98
2022-09-09T15:23:15.836Z,52.28
2022-09-09T15:25:51.672Z,52.40
2022-09-09T15:28:18.234Z,53.13
2022-09-09T15:30:45.910Z,53.35
2022-09-09T15:33:13.151Z,53.55
2022-09-09T15:35:39.625Z,53.26
2022-09-09T15:38:06.062Z,52.74
2022-09-09T15:40:35.474Z,52.05
2022-09-09T15:43:03.144Z,52.31
2022-09-09T15:45:33.383Z,52.56
2022-09-09T15:48:03.096Z,52.37
2022-09-09T15:50:32.365Z,52.90
2022-09-09T15:52:59.427Z,52.02
2022-09-09T15:55:26.488Z,51.14
2022-09-09T15:57:53.727Z,50.93
2022-09-09T16:00:20.915Z,51.25
2022-09-09T16:02:50.399Z,50.64
2022-09-09T16:05:16.917Z,50.21
2022-09-09T16:07:44.644Z,48.92
2022-09-09T16:10:12.095Z,48.55
2022-09-09T16:12:39.016Z,48.30
2022-09-09T16:15:05.741Z,47.81
2022-09-09T16:17:38.139Z,47.38
2022-09-09T16:20:06.943Z,48.36
2022-09-09T16:22:33.383Z,49.20
2022-09-09T16:24:59.786Z,50.94
2022-09-09T16:27:26.513Z,50.67
2022-09-09T16:29:52.995Z,51.83
2022-09-09T16:32:19.537Z,51.76
2022-09-09T16:34:46.750Z,52.44
2022-09-09T16:37:13.327Z,53.46
2022-09-09T16:39:39.872Z,52.98
2022-09-09T16:42:06.425Z,52.84
2022-09-09T16:44:32.858Z,52.91
2022-09-09T16:47:00.992Z,53.11
2022-09-09T16:49:29.242Z,52.79
2022-09-09T16:51:58.098Z,53.24
2022-09-09T16:54:26.177Z,53.15
2022-09-09T16:56:52.641Z,53.38
2022-09-09T16:59:20.060Z,52.78
2022-09-09T17:01:48.040Z,52.75
2022-09-09T17:04:17.230Z,53.09
2022-09-09T17:06:46.563Z,52.82
2022-09-09T17:09:13.974Z,53.33
2022-09-09T17:11:40.839Z,53.71
2022-09-09T17:14:10.297Z,54.04
2022-09-09T17:16:37.694Z,54.16
2022-09-09T17:19:04.712Z,53.79
2022-09-09T17:21:31.814Z,54.06
2022-09-09T17:23:58.502Z,55.35
2022-09-09T17:26:27.691Z,55.35
2022-09-09T17:28:59.419Z,55.32
2022-09-09T17:31:26.742Z,56.02
2022-09-09T17:33:53.616Z,56.66
2022-09-09T17:36:23.178Z,56.95
2022-09-09T17:38:50.205Z,57.02
2022-09-09T17:41:18.385Z,56.68
2022-09-09T17:43:45.375Z,57.23
2022-09-09T17:46:20.953Z,57.39
2022-09-09T17:48:48.019Z,58.10
2022-09-09T17:51:16.962Z,58.33
2022-09-09T17:53:44.671Z,58.47
2022-09-09T17:56:12.611Z,59.21
2022-09-09T17:58:39.553Z,60.56
2022-09-09T18:01:07.592Z,64.24
2022-09-09T18:03:34.925Z,64.83
2022-09-09T18:06:05.826Z,64.33
2022-09-09T18:08:36.564Z,64.17
2022-09-09T18:11:04.467Z,63.94
2022-09-09T18:13:31.009Z,64.18
2022-09-09T18:15:58.427Z,64.29
2022-09-09T18:18:25.237Z,63.46
2022-09-09T18:21:01.717Z,63.28
2022-09-09T18:23:29.443Z,62.85
2022-09-09T18:25:56.622Z,63.49
2022-09-09T18:28:25.097Z,63.14
2022-09-09T18:30:52.618Z,62.17
2022-09-09T18:33:19.219Z,61.10
2022-09-09T18:35:48.255Z,61.38
2022-09-09T18:38:17.783Z,61.15
2022-09-09T18:40:44.516Z,60.87
2022-09-09T18:43:12.852Z,60.12
2022-09-09T18:45:39.409Z,61.46
2022-09-09T18:48:05.991Z,61.69
2022-09-09T18:50:34.092Z,62.68
2022-09-09T18:53:00.523Z,61.84
2022-09-09T18:55:29.009Z,62.43
2022-09-09T18:57:58.630Z,63.55
2022-09-09T19:00:25.234Z,63.53
2022-09-09T19:02:52.905Z,63.00
2022-09-09T19:05:19.344Z,62.49
2022-09-09T19:07:45.876Z,63.77
2022-09-09T19:10:12.383Z,63.61
2022-09-09T19:12:41.374Z,63.74
2022-09-09T19:15:08.144Z,64.00
2022-09-09T19:17:35.782Z,62.79
2022-09-09T19:20:02.382Z,62.96
2022-09-09T19:22:29.573Z,62.18
2022-09-09T19:24:56.642Z,61.71
2022-09-09T19:27:24.399Z,61.45
2022-09-09T19:29:56.914Z,61.90
2022-09-09T19:35:12.103Z,61.83
2022-09-09T19:37:38.562Z,61.63
2022-09-09T19:40:08.187Z,62.73
2022-09-09T19:42:34.645Z,62.98
2022-09-09T19:45:01.449Z,62.78
2022-09-09T19:47:27.996Z,62.91
2022-09-09T19:49:54.478Z,62.95
2022-09-09T19:52:21.024Z,62.30
2022-09-09T19:54:47.669Z,62.07
2022-09-09T19:57:14.424Z,63.88
2022-09-09T19:59:40.940Z,64.56
2022-09-09T20:02:07.463Z,65.74
2022-09-09T20:04:35.210Z,67.67
2022-09-09T20:07:02.170Z,67.85
2022-09-09T20:09:30.437Z,67.58
2022-09-09T20:11:57.038Z,67.47
2022-09-09T20:14:23.604Z,67.19
2022-09-09T20:16:50.059Z,67.10
2022-09-09T20:19:16.596Z,67.00
2022-09-09T20:21:47.737Z,66.05
2022-09-09T20:24:15.977Z,65.41
2022-09-09T20:26:42.409Z,65.25
2022-09-09T20:29:15.249Z,65.62
2022-09-09T20:31:43.045Z,65.72
2022-09-09T20:34:14.031Z,65.64
2022-09-09T20:36:41.383Z,65.56
2022-09-09T20:39:12.829Z,65.50
2022-09-09T20:41:40.105Z,65.36
2022-09-09T20:44:08.410Z,65.45
2022-09-09T20:46:36.486Z,65.45
2022-09-09T20:49:04.134Z,65.33
2022-09-09T20:51:32.892Z,65.30
2022-09-09T20:54:04.088Z,65.30
2022-09-09T20:56:34.522Z,66.58
2022-09-09T20:59:01.333Z,67.04
2022-09-09T21:01:27.933Z,68.16
2022-09-09T21:03:54.468Z,69.22
2022-09-09T21:06:20.920Z,71.28
2022-09-09T21:08:47.468Z,71.60
2022-09-09T21:11:13.947Z,70.50
2022-09-09T21:13:40.645Z,71.53
2022-09-09T21:16:09.231Z,71.70
2022-09-09T21:18:35.857Z,69.54
2022-09-09T21:21:03.564Z,69.44
2022-09-09T21:23:30.210Z,70.34
2022-09-09T21:25:56.915Z,70.01
2022-09-09T21:28:25.684Z,70.45
2022-09-09T21:30:53.219Z,70.08
2022-09-09T21:33:20.315Z,69.46
2022-09-09T21:35:47.103Z,69.76
2022-09-09T21:38:15.336Z,69.28
2022-09-09T21:40:41.801Z,68.52
2022-09-09T21:43:11.767Z,68.41
2022-09-09T21:45:39.213Z,66.90
2022-09-09T21:48:06.602Z,67.64
2022-09-09T21:50:36.792Z,66.72
2022-09-09T21:53:03.774Z,66.27
2022-09-09T21:55:37.236Z,65.88
2022-09-09T21:58:06.593Z,65.70
2022-09-09T22:00:33.428Z,65.96
2022-09-09T22:03:00.440Z,65.50
2022-09-09T22:05:27.055Z,66.00
2022-09-09T22:07:53.997Z,65.76
2022-09-09T22:10:21.386Z,65.79
2022-09-09T22:12:48.196Z,65.73
2022-09-09T22:15:15.694Z,65.43
2022-09-09T22:17:42.396Z,65.93
2022-09-09T22:20:09.328Z,65.37
2022-09-09T22:22:35.837Z,66.36
2022-09-09T22:25:02.455Z,67.01
2022-09-09T22:27:31.222Z,67.38
2022-09-09T22:29:57.705Z,67.79
2022-09-09T22:32:24.629Z,67.37
2022-09-09T22:34:51.248Z,66.64
2022-09-09T22:37:18.371Z,66.38
2022-09-09T22:39:45.137Z,66.34
2022-09-09T22:42:12.472Z,65.55
2022-09-09T22:44:38.948Z,65.93
2022-09-09T22:47:05.471Z,65.94
2022-09-09T22:49:32.098Z,65.77
2022-09-09T22:51:58.610Z,65.95
2022-09-09T22:54:25.117Z,66.20
2022-09-09T22:56:51.644Z,66.42
2022-09-09T22:59:18.888Z,66.18
2022-09-09T23:01:46.118Z,66.40
2022-09-09T23:04:13.366Z,66.71
2022-09-09T23:06:43.054Z,67.05
2022-09-09T23:09:10.827Z,67.12
2022-09-09T23:11:37.336Z,67.57
2022-09-09T23:14:05.375Z,67.86
2022-09-09T23:16:33.843Z,68.02
2022-09-09T23:19:04.049Z,67.94
2022-09-09T23:21:31.165Z,68.52
2022-09-09T23:23:58.442Z,67.98
2022-09-09T23:26:25.862Z,68.04
2022-09-09T23:28:53.064Z,68.50
2022-09-09T23:31:22.028Z,68.60
2022-09-09T23:33:48.730Z,68.25
2022-09-09T23:36:16.432Z,68.63
2022-09-09T23:38:44.297Z,68.66
2022-09-09T23:41:12.220Z,67.96
2022-09-09T23:43:43.619Z,67.77
2022-09-09T23:46:11.342Z,68.38
2022-09-09T23:48:38.647Z,67.78
2022-09-09T23:51:05.954Z,67.30
2022-09-09T23:53:32.700Z,67.83
2022-09-09T23:55:59.378Z,67.69
2022-09-09T23:58:25.946Z,67.33
